Time,TemperatureF,DewpointF,PressureIn,WindDirection,WindDirectionDegrees,WindSpeedMPH,WindSpeedGustMPH,Humidity,HourlyPrecipIn,Conditions,Clouds,dailyrainin,SoftwareType,DateUTC
2013-12-25 00:04:00,20.3,9.0,30.44,NW,307,7.0,9.0,63,0.00,,,0.00,weatherlink.com 1.10,2013-12-25 05:04:00,
2013-12-25 00:19:00,20.2,9.0,30.44,WNW,290,6.0,9.0,61,0.00,,,0.00,weatherlink.com 1.10,2013-12-25 05:19:00,
2013-12-25 00:34:00,20.0,9.0,30.44,West,272,3.0,11.0,62,0.00,,,0.00,weatherlink.com 1.10,2013-12-25 05:34:00,
2013-12-25 00:49:00,19.8,9.0,30.45,WNW,294,5.0,7.0,62,0.00,,,0.00,weatherlink.com 1.10,2013-12-25 05:49:00,
2013-12-25 01:04:00,19.5,8.0,30.43,NW,306,2.0,10.0,62,0.00,,,0.00,weatherlink.com 1.10,2013-12-25 06:04:00,
2013-12-25 01:19:00,19.3,8.0,30.44,NW,317,1.0,5.0,62,0.00,,,0.00,weatherlink.com 1.10,2013-12-25 06:19:00,
2013-12-25 01:34:00,18.9,9.0,30.44,NW,304,4.0,5.0,64,0.00,,,0.00,weatherlink.com 1.10,2013-12-25 06:34:00,
2013-12-25 01:49:00,18.7,8.0,30.45,West,279,4.0,5.0,64,0.00,,,0.00,weatherlink.com 1.10,2013-12-25 06:49:00,
2013-12-25 02:04:00,18.5,8.0,30.45,WNW,293,4.0,6.0,64,0.00,,,0.00,weatherlink.com 1.10,2013-12-25 07:04:00,
2013-12-25 02:19:00,18.4,8.0,30.46,NW,311,0.0,7.0,65,0.00,,,0.00,weatherlink.com 1.10,2013-12-25 07:19:00,
2013-12-25 02:34:00,18.1,9.0,30.46,WNW,291,2.0,4.0,67,0.00,,,0.00,weatherlink.com 1.10,2013-12-25 07:34:00,
2013-12-25 02:49:00,17.7,9.0,30.47,WNW,294,1.0,2.0,68,0.00,,,0.00,weatherlink.com 1.10,2013-12-25 07:49:00,
2013-12-25 03:04:00,17.2,9.0,30.47,WNW,294,2.0,3.0,69,0.00,,,0.00,weatherlink.com 1.10,2013-12-25 08:04:00,
2013-12-25 03:19:00,17.0,8.0,30.46,WNW,296,0.0,3.0,69,0.00,,,0.00,weatherlink.com 1.10,2013-12-25 08:19:00,
2013-12-25 03:34:00,17.0,9.0,30.46,WNW,293,0.0,5.0,70,0.00,,,0.00,weatherlink.com 1.10,2013-12-25 08:34:00,
2013-12-25 03:49:00,16.9,9.0,30.46,West,276,0.0,3.0,70,0.00,,,0.00,weatherlink.com 1.10,2013-12-25 08:49:00,
2013-12-25 04:04:00,16.7,9.0,30.47,West,277,0.0,0.0,71,0.00,,,0.00,weatherlink.com 1.10,2013-12-25 09:04:00,
2013-12-25 04:19:00,16.6,9.0,30.46,WNW,297,3.0,5.0,71,0.00,,,0.00,weatherlink.com 1.10,2013-12-25 09:19:00,
2013-12-25 04:34:00,16.8,9.0,30.46,WNW,286,2.0,2.0,71,0.00,,,0.00,weatherlink.com 1.10,2013-12-25 09:34:00,
2013-12-25 04:49:00,17.1,9.0,30.46,WNW,298,2.0,3.0,71,0.00,,,0.00,weatherlink.com 1.10,2013-12-25 09:49:00,
2013-12-25 05:04:00,17.1,10.0,30.46,NW,306,2.0,4.0,72,0.00,,,0.00,weatherlink.com 1.10,2013-12-25 10:04:00,
2013-12-25 05:19:00,17.1,10.0,30.46,NW,307,2.0,3.0,72,0.00,,,0.00,weatherlink.com 1.10,2013-12-25 10:19:00,
2013-12-25 05:34:00,17.1,10.0,30.48,WNW,292,3.0,4.0,73,0.00,,,0.00,weatherlink.com 1.10,2013-12-25 10:34:00,
2013-12-25 05:50:00,17.1,10.0,30.48,WNW,285,0.0,4.0,73,0.00,,,0.00,weatherlink.com 1.10,2013-12-25 10:50:00,
2013-12-25 06:05:00,16.9,10.0,30.48,WNW,296,2.0,3.0,73,0.00,,,0.00,weatherlink.com 1.10,2013-12-25 11:05:00,
2013-12-25 06:20:00,16.6,10.0,30.48,WNW,296,0.0,3.0,74,0.00,,,0.00,weatherlink.com 1.10,2013-12-25 11:20:00,
2013-12-25 06:35:00,16.3,10.0,30.49,WNW,296,0.0,3.0,75,0.00,,,0.00,weatherlink.com 1.10,2013-12-25 11:35:00,
2013-12-25 06:50:00,16.4,10.0,30.48,WNW,296,1.0,3.0,75,0.00,,,0.00,weatherlink.com 1.10,2013-12-25 11:50:00,
2013-12-25 07:05:00,16.5,10.0,30.49,WNW,288,2.0,3.0,75,0.00,,,0.00,weatherlink.com 1.10,2013-12-25 12:05:00,
2013-12-25 07:20:00,16.6,10.0,30.49,WNW,287,1.0,3.0,75,0.00,,,0.00,weatherlink.com 1.10,2013-12-25 12:20:00,
2013-12-25 07:35:00,16.7,10.0,30.49,WNW,298,0.0,4.0,75,0.00,,,0.00,weatherlink.com 1.10,2013-12-25 12:35:00,
2013-12-25 07:50:00,17.0,10.0,30.50,WNW,296,0.0,4.0,75,0.00,,,0.00,weatherlink.com 1.10,2013-12-25 12:50:00,
2013-12-25 08:05:00,17.6,11.0,30.50,WNW,294,0.0,3.0,75,0.00,,,0.00,weatherlink.com 1.10,2013-12-25 13:05:00,
2013-12-25 08:20:00,18.2,11.0,30.50,WNW,292,1.0,3.0,74,0.00,,,0.00,weatherlink.com 1.10,2013-12-25 13:20:00,
2013-12-25 08:35:00,18.8,11.0,30.50,WNW,298,1.0,3.0,72,0.00,,,0.00,weatherlink.com 1.10,2013-12-25 13:35:00,
2013-12-25 08:50:00,19.4,11.0,30.52,WNW,287,5.0,5.0,71,0.00,,,0.00,weatherlink.com 1.10,2013-12-25 13:50:00,
2013-12-25 09:05:00,20.8,12.0,30.52,WNW,284,4.0,5.0,69,0.00,,,0.00,weatherlink.com 1.10,2013-12-25 14:05:00,
2013-12-25 09:20:00,23.2,12.0,30.52,NW,306,4.0,6.0,63,0.00,,,0.00,weatherlink.com 1.10,2013-12-25 14:20:00,
2013-12-25 09:35:00,23.9,12.0,30.53,WNW,285,3.0,7.0,62,0.00,,,0.00,weatherlink.com 1.10,2013-12-25 14:35:00,
2013-12-25 09:50:00,24.7,12.0,30.52,West,269,3.0,4.0,60,0.00,,,0.00,weatherlink.com 1.10,2013-12-25 14:50:00,
2013-12-25 10:05:00,26.0,13.0,30.52,NW,316,1.0,3.0,57,0.00,,,0.00,weatherlink.com 1.10,2013-12-25 15:05:00,
2013-12-25 10:20:00,26.7,12.0,30.52,SE,130,1.0,5.0,53,0.00,,,0.00,weatherlink.com 1.10,2013-12-25 15:20:00,
2013-12-25 10:35:00,24.1,11.0,30.50,ESE,115,2.0,5.0,57,0.00,,,0.00,weatherlink.com 1.10,2013-12-25 15:35:00,
2013-12-25 10:50:00,25.4,12.0,30.50,ESE,117,0.0,3.0,58,0.00,,,0.00,weatherlink.com 1.10,2013-12-25 15:50:00,
2013-12-25 11:05:00,26.3,12.0,30.50,ESE,103,0.0,3.0,54,0.00,,,0.00,weatherlink.com 1.10,2013-12-25 16:05:00,
2013-12-25 11:20:00,26.4,12.0,30.49,NE,55,1.0,3.0,54,0.00,,,0.00,weatherlink.com 1.10,2013-12-25 16:20:00,
2013-12-25 11:35:00,25.2,11.0,30.48,SE,128,0.0,2.0,56,0.00,,,0.00,weatherlink.com 1.10,2013-12-25 16:35:00,
2013-12-25 11:50:00,26.6,11.0,30.48,SE,132,0.0,5.0,53,0.00,,,0.00,weatherlink.com 1.10,2013-12-25 16:50:00,
2013-12-25 12:05:00,27.2,12.0,30.47,East,96,2.0,3.0,54,0.00,,,0.00,weatherlink.com 1.10,2013-12-25 17:05:00,
2013-12-25 12:20:00,28.4,12.0,30.46,South,190,0.0,2.0,51,0.00,,,0.00,weatherlink.com 1.10,2013-12-25 17:20:00,
2013-12-25 12:35:00,28.0,13.0,30.45,NNW,342,0.0,3.0,53,0.00,,,0.00,weatherlink.com 1.10,2013-12-25 17:35:00,
2013-12-25 12:50:00,27.6,12.0,30.44,ESE,123,0.0,3.0,52,0.00,,,0.00,weatherlink.com 1.10,2013-12-25 17:50:00,
2013-12-25 13:05:00,28.3,12.0,30.43,SE,126,1.0,4.0,51,0.00,,,0.00,weatherlink.com 1.10,2013-12-25 18:05:00,
2013-12-25 13:20:00,28.4,13.0,30.43,SE,142,0.0,3.0,52,0.00,,,0.00,weatherlink.com 1.10,2013-12-25 18:20:00,
2013-12-25 13:35:00,29.8,13.0,30.42,SE,144,3.0,3.0,50,0.00,,,0.00,weatherlink.com 1.10,2013-12-25 18:35:00,
2013-12-25 13:50:00,28.8,13.0,30.41,ESE,106,3.0,5.0,52,0.00,,,0.00,weatherlink.com 1.10,2013-12-25 18:50:00,
2013-12-25 14:05:00,29.3,14.0,30.41,NW,315,2.0,4.0,52,0.00,,,0.00,weatherlink.com 1.10,2013-12-25 19:05:00,
2013-12-25 14:20:00,29.1,12.0,30.40,South,172,0.0,4.0,50,0.00,,,0.00,weatherlink.com 1.10,2013-12-25 19:20:00,
2013-12-25 14:35:00,28.9,14.0,30.40,East,92,1.0,6.0,54,0.00,,,0.00,weatherlink.com 1.10,2013-12-25 19:35:00,
2013-12-25 14:51:00,28.8,13.0,30.40,SE,126,5.0,8.0,52,0.00,,,0.00,weatherlink.com 1.10,2013-12-25 19:51:00,
2013-12-25 15:06:00,28.6,12.0,30.40,ESE,123,0.0,3.0,51,0.00,,,0.00,weatherlink.com 1.10,2013-12-25 20:06:00,
2013-12-25 15:21:00,28.7,14.0,30.39,ESE,109,0.0,3.0,54,0.00,,,0.00,weatherlink.com 1.10,2013-12-25 20:21:00,
2013-12-25 15:36:00,29.3,12.0,30.38,East,89,2.0,7.0,49,0.00,,,0.00,weatherlink.com 1.10,2013-12-25 20:36:00,
2013-12-25 15:51:00,29.8,13.0,30.38,ESE,105,0.0,6.0,50,0.00,,,0.00,weatherlink.com 1.10,2013-12-25 20:51:00,
2013-12-25 16:06:00,30.1,13.0,30.38,SE,139,0.0,5.0,49,0.00,,,0.00,weatherlink.com 1.10,2013-12-25 21:06:00,
2013-12-25 16:21:00,30.1,13.0,30.39,ESE,110,0.0,5.0,50,0.00,,,0.00,weatherlink.com 1.10,2013-12-25 21:21:00,
2013-12-25 16:36:00,29.7,13.0,30.39,East,79,0.0,3.0,50,0.00,,,0.00,weatherlink.com 1.10,2013-12-25 21:36:00,
2013-12-25 16:51:00,29.2,13.0,30.38,ESE,109,2.0,3.0,52,0.00,,,0.00,weatherlink.com 1.10,2013-12-25 21:51:00,
2013-12-25 17:06:00,28.9,13.0,30.38,ESE,105,1.0,3.0,51,0.00,,,0.00,weatherlink.com 1.10,2013-12-25 22:06:00,
2013-12-25 17:21:00,28.8,13.0,30.38,ESE,112,1.0,5.0,52,0.00,,,0.00,weatherlink.com 1.10,2013-12-25 22:21:00,
2013-12-25 17:36:00,28.7,14.0,30.38,East,101,1.0,5.0,54,0.00,,,0.00,weatherlink.com 1.10,2013-12-25 22:36:00,
2013-12-25 17:51:00,28.5,14.0,30.38,East,98,1.0,3.0,55,0.00,,,0.00,weatherlink.com 1.10,2013-12-25 22:51:00,
2013-12-25 18:06:00,28.3,13.0,30.38,East,95,1.0,4.0,54,0.00,,,0.00,weatherlink.com 1.10,2013-12-25 23:06:00,
2013-12-25 18:21:00,28.2,13.0,30.37,East,80,0.0,4.0,54,0.00,,,0.00,weatherlink.com 1.10,2013-12-25 23:21:00,
2013-12-25 18:36:00,28.1,14.0,30.37,East,101,1.0,4.0,55,0.00,,,0.00,weatherlink.com 1.10,2013-12-25 23:36:00,
2013-12-25 18:51:00,28.1,14.0,30.37,SSW,200,2.0,3.0,56,0.00,,,0.00,weatherlink.com 1.10,2013-12-25 23:51:00,
2013-12-25 19:06:00,28.1,14.0,30.37,East,82,0.0,2.0,56,0.00,,,0.00,weatherlink.com 1.10,2013-12-26 00:06:00,
2013-12-25 19:21:00,28.1,14.0,30.36,NNE,24,1.0,5.0,55,0.00,,,0.00,weatherlink.com 1.10,2013-12-26 00:21:00,
2013-12-25 19:36:00,28.2,14.0,30.36,East,90,0.0,3.0,56,0.00,,,0.00,weatherlink.com 1.10,2013-12-26 00:36:00,
2013-12-25 19:51:00,28.1,14.0,30.36,ENE,78,1.0,4.0,57,0.00,,,0.00,weatherlink.com 1.10,2013-12-26 00:51:00,
2013-12-25 20:06:00,28.1,14.0,30.36,SE,144,2.0,4.0,57,0.00,,,0.00,weatherlink.com 1.10,2013-12-26 01:06:00,
2013-12-25 20:21:00,28.0,14.0,30.35,SE,142,0.0,6.0,56,0.00,,,0.00,weatherlink.com 1.10,2013-12-26 01:21:00,
2013-12-25 20:36:00,27.9,14.0,30.35,East,94,1.0,2.0,57,0.00,,,0.00,weatherlink.com 1.10,2013-12-26 01:36:00,
2013-12-25 20:51:00,27.8,14.0,30.35,SE,140,0.0,4.0,57,0.00,,,0.00,weatherlink.com 1.10,2013-12-26 01:51:00,
2013-12-25 21:06:00,27.8,14.0,30.34,East,79,0.0,5.0,57,0.00,,,0.00,weatherlink.com 1.10,2013-12-26 02:06:00,
2013-12-25 21:21:00,27.8,14.0,30.34,ESE,107,1.0,7.0,57,0.00,,,0.00,weatherlink.com 1.10,2013-12-26 02:21:00,
2013-12-25 21:36:00,27.6,15.0,30.33,ESE,105,0.0,6.0,60,0.00,,,0.00,weatherlink.com 1.10,2013-12-26 02:36:00,
2013-12-25 21:51:00,27.5,15.0,30.33,SE,138,3.0,5.0,59,0.00,,,0.00,weatherlink.com 1.10,2013-12-26 02:51:00,
2013-12-25 22:06:00,27.3,15.0,30.32,East,94,1.0,7.0,60,0.00,,,0.00,weatherlink.com 1.10,2013-12-26 03:06:00,
2013-12-25 22:21:00,27.2,15.0,30.32,ENE,61,2.0,4.0,61,0.00,,,0.00,weatherlink.com 1.10,2013-12-26 03:21:00,
2013-12-25 22:36:00,27.0,15.0,30.32,South,178,4.0,4.0,61,0.00,,,0.00,weatherlink.com 1.10,2013-12-26 03:36:00,
2013-12-25 22:51:00,27.0,15.0,30.32,ENE,68,2.0,4.0,62,0.00,,,0.00,weatherlink.com 1.10,2013-12-26 03:51:00,
2013-12-25 23:06:00,26.7,15.0,30.31,SE,133,0.0,4.0,61,0.00,,,0.00,weatherlink.com 1.10,2013-12-26 04:06:00,
2013-12-25 23:21:00,26.2,15.0,30.30,SSE,150,2.0,5.0,63,0.00,,,0.00,weatherlink.com 1.10,2013-12-26 04:21:00,
2013-12-25 23:36:00,25.8,15.0,30.29,ESE,123,0.0,6.0,64,0.00,,,0.00,weatherlink.com 1.10,2013-12-26 04:36:00,
2013-12-25 23:51:00,25.5,15.0,30.29,SE,132,0.0,4.0,65,0.00,,,0.00,weatherlink.com 1.10,2013-12-26 04:51:00,